sensor_id;sensor_type;location;lat;lon;timestamp;P1;durP1;ratioP1;P2;durP2;ratioP2
9485;SDS011;4781;48.776;9.200;2023-04-16T00:01:08;8.65;;;4.58;;
9485;SDS011;4781;48.776;9.200;2023-04-16T00:03:38;8.60;;;4.62;;
9485;SDS011;4781;48.776;9.200;2023-04-16T00:06:06;7.87;;;4.45;;
9485;SDS011;4781;48.776;9.200;2023-04-16T00:08:36;8.28;;;4.87;;
9485;SDS011;4781;48.776;9.200;2023-04-16T00:11:05;6.50;;;3.87;;
9485;SDS011;4781;48.776;9.200;2023-04-16T00:13:34;7.85;;;4.40;;
9485;SDS011;4781;48.776;9.200;2023-04-16T00:16:03;7.85;;;4.40;;
9485;SDS011;4781;48.776;9.200;2023-04-16T00:18:32;8.45;;;4.33;;
9485;SDS011;4781;48.776;9.200;2023-04-16T00:21:00;9.85;;;4.50;;
9485;SDS011;4781;48.776;9.200;2023-04-16T00:23:29;9.18;;;5.10;;
9485;SDS011;4781;48.776;9.200;2023-04-16T00:25:57;7.15;;;3.92;;
9485;SDS011;4781;48.776;9.200;2023-04-16T00:28:25;8.60;;;5.15;;
9485;SDS011;4781;48.776;9.200;2023-04-16T00:30:54;7.27;;;4.57;;
9485;SDS011;4781;48.776;9.200;2023-04-16T00:33:22;8.08;;;4.50;;
9485;SDS011;4781;48.776;9.200;2023-04-16T00:35:51;8.73;;;4.35;;
9485;SDS011;4781;48.776;9.200;2023-04-16T00:38:19;8.93;;;4.65;;
9485;SDS011;4781;48.776;9.200;2023-04-16T00:40:47;8.10;;;4.35;;
9485;SDS011;4781;48.776;9.200;2023-04-16T00:43:22;7.70;;;4.42;;
9485;SDS011;4781;48.776;9.200;2023-04-16T00:45:52;7.05;;;4.20;;
9485;SDS011;4781;48.776;9.200;2023-04-16T00:48:23;7.53;;;4.15;;
9485;SDS011;4781;48.776;9.200;2023-04-16T00:50:52;8.48;;;5.15;;
9485;SDS011;4781;48.776;9.200;2023-04-16T00:53:21;8.73;;;4.60;;
9485;SDS011;4781;48.776;9.200;2023-04-16T00:55:50;8.33;;;4.12;;
9485;SDS011;4781;48.776;9.200;2023-04-16T00:58:20;7.70;;;4.30;;
9485;SDS011;4781;48.776;9.200;2023-04-16T01:00:50;12.37;;;4.08;;
9485;SDS011;4781;48.776;9.200;2023-04-16T01:03:18;6.65;;;3.62;;
9485;SDS011;4781;48.776;9.200;2023-04-16T01:05:46;7.80;;;4.33;;
9485;SDS011;4781;48.776;9.200;2023-04-16T01:08:19;10.18;;;5.20;;
9485;SDS011;4781;48.776;9.200;2023-04-16T01:10:47;7.30;;;4.22;;
9485;SDS011;4781;48.776;9.200;2023-04-16T01:13:16;9.38;;;4.55;;
9485;SDS011;4781;48.776;9.200;2023-04-16T01:15:44;7.95;;;4.10;;
9485;SDS011;4781;48.776;9.200;2023-04-16T01:18:16;7.90;;;4.17;;
9485;SDS011;4781;48.776;9.200;2023-04-16T01:20:46;8.90;;;4.58;;
9485;SDS011;4781;48.776;9.200;2023-04-16T01:23:15;7.50;;;4.20;;
9485;SDS011;4781;48.776;9.200;2023-04-16T01:25:44;7.60;;;3.98;;
9485;SDS011;4781;48.776;9.200;2023-04-16T01:28:13;7.10;;;4.10;;
9485;SDS011;4781;48.776;9.200;2023-04-16T01:30:42;7.95;;;4.28;;
9485;SDS011;4781;48.776;9.200;2023-04-16T01:33:10;6.37;;;3.62;;
9485;SDS011;4781;48.776;9.200;2023-04-16T01:35:40;7.05;;;3.80;;
9485;SDS011;4781;48.776;9.200;2023-04-16T01:38:09;6.60;;;3.35;;
9485;SDS011;4781;48.776;9.200;2023-04-16T01:40:37;6.90;;;3.72;;
9485;SDS011;4781;48.776;9.200;2023-04-16T01:43:05;6.12;;;3.47;;
9485;SDS011;4781;48.776;9.200;2023-04-16T01:45:34;7.10;;;3.95;;
9485;SDS011;4781;48.776;9.200;2023-04-16T01:48:02;6.83;;;3.65;;
9485;SDS011;4781;48.776;9.200;2023-04-16T01:50:31;6.95;;;3.55;;
9485;SDS011;4781;48.776;9.200;2023-04-16T01:53:01;7.05;;;3.60;;
9485;SDS011;4781;48.776;9.200;2023-04-16T01:55:30;7.28;;;3.95;;
9485;SDS011;4781;48.776;9.200;2023-04-16T01:58:01;7.12;;;3.77;;
9485;SDS011;4781;48.776;9.200;2023-04-16T02:00:31;6.53;;;3.67;;
9485;SDS011;4781;48.776;9.200;2023-04-16T02:03:00;6.72;;;3.58;;
9485;SDS011;4781;48.776;9.200;2023-04-16T02:05:28;5.45;;;2.95;;
9485;SDS011;4781;48.776;9.200;2023-04-16T02:07:57;6.83;;;3.50;;
9485;SDS011;4781;48.776;9.200;2023-04-16T02:10:25;6.45;;;3.90;;
9485;SDS011;4781;48.776;9.200;2023-04-16T02:12:53;6.17;;;3.17;;
9485;SDS011;4781;48.776;9.200;2023-04-16T02:15:22;6.37;;;3.65;;
9485;SDS011;4781;48.776;9.200;2023-04-16T02:17:50;6.35;;;3.87;;
9485;SDS011;4781;48.776;9.200;2023-04-16T02:20:21;6.53;;;3.65;;
9485;SDS011;4781;48.776;9.200;2023-04-16T02:22:49;6.25;;;3.65;;
9485;SDS011;4781;48.776;9.200;2023-04-16T02:25:17;6.22;;;3.60;;
9485;SDS011;4781;48.776;9.200;2023-04-16T02:27:47;6.92;;;3.62;;
9485;SDS011;4781;48.776;9.200;2023-04-16T02:30:15;7.53;;;3.80;;
9485;SDS011;4781;48.776;9.200;2023-04-16T02:32:44;6.47;;;3.37;;
9485;SDS011;4781;48.776;9.200;2023-04-16T02:35:12;6.03;;;3.52;;
9485;SDS011;4781;48.776;9.200;2023-04-16T02:37:40;6.60;;;3.67;;
9485;SDS011;4781;48.776;9.200;2023-04-16T02:40:09;8.10;;;3.00;;
9485;SDS011;4781;48.776;9.200;2023-04-16T02:42:38;6.80;;;4.00;;
9485;SDS011;4781;48.776;9.200;2023-04-16T02:45:06;6.53;;;3.27;;
9485;SDS011;4781;48.776;9.200;2023-04-16T02:47:36;7.40;;;3.90;;
9485;SDS011;4781;48.776;9.200;2023-04-16T02:50:05;7.22;;;3.90;;
9485;SDS011;4781;48.776;9.200;2023-04-16T02:52:34;6.85;;;3.65;;
9485;SDS011;4781;48.776;9.200;2023-04-16T02:55:02;7.40;;;3.75;;
9485;SDS011;4781;48.776;9.200;2023-04-16T02:57:31;8.65;;;3.72;;
9485;SDS011;4781;48.776;9.200;2023-04-16T03:00:00;6.85;;;3.90;;
9485;SDS011;4781;48.776;9.200;2023-04-16T03:02:29;7.47;;;4.05;;
9485;SDS011;4781;48.776;9.200;2023-04-16T03:04:58;7.62;;;3.83;;
9485;SDS011;4781;48.776;9.200;2023-04-16T03:07:26;7.53;;;3.83;;
9485;SDS011;4781;48.776;9.200;2023-04-16T03:09:55;7.30;;;3.60;;
9485;SDS011;4781;48.776;9.200;2023-04-16T03:12:23;7.87;;;3.98;;
9485;SDS011;4781;48.776;9.200;2023-04-16T03:14:51;7.65;;;3.92;;
9485;SDS011;4781;48.776;9.200;2023-04-16T03:17:20;9.38;;;4.60;;
9485;SDS011;4781;48.776;9.200;2023-04-16T03:19:48;6.50;;;3.75;;
9485;SDS011;4781;48.776;9.200;2023-04-16T03:22:16;9.33;;;4.72;;
9485;SDS011;4781;48.776;9.200;2023-04-16T03:24:45;7.17;;;3.67;;
9485;SDS011;4781;48.776;9.200;2023-04-16T03:27:13;8.20;;;4.42;;
9485;SDS011;4781;48.776;9.200;2023-04-16T03:29:41;7.97;;;4.20;;
9485;SDS011;4781;48.776;9.200;2023-04-16T03:32:10;9.95;;;4.33;;
9485;SDS011;4781;48.776;9.200;2023-04-16T03:34:38;9.48;;;4.40;;
9485;SDS011;4781;48.776;9.200;2023-04-16T03:37:07;8.73;;;4.05;;
9485;SDS011;4781;48.776;9.200;2023-04-16T03:39:36;7.83;;;4.42;;
9485;SDS011;4781;48.776;9.200;2023-04-16T03:42:05;7.72;;;3.80;;
9485;SDS011;4781;48.776;9.200;2023-04-16T03:44:33;11.28;;;4.87;;
9485;SDS011;4781;48.776;9.200;2023-04-16T03:47:02;7.60;;;3.83;;
9485;SDS011;4781;48.776;9.200;2023-04-16T03:49:30;8.25;;;4.03;;
9485;SDS011;4781;48.776;9.200;2023-04-16T03:51:58;9.38;;;4.58;;
9485;SDS011;4781;48.776;9.200;2023-04-16T03:54:27;7.95;;;4.22;;
9485;SDS011;4781;48.776;9.200;2023-04-16T03:56:56;9.40;;;4.12;;
9485;SDS011;4781;48.776;9.200;2023-04-16T03:59:24;8.60;;;4.65;;
9485;SDS011;4781;48.776;9.200;2023-04-16T04:01:52;9.93;;;4.53;;
9485;SDS011;4781;48.776;9.200;2023-04-16T04:04:21;7.80;;;4.30;;
9485;SDS011;4781;48.776;9.200;2023-04-16T04:06:49;7.92;;;4.12;;
9485;SDS011;4781;48.776;9.200;2023-04-16T04:09:18;8.50;;;3.98;;
9485;SDS011;4781;48.776;9.200;2023-04-16T04:11:46;9.28;;;4.80;;
9485;SDS011;4781;48.776;9.200;2023-04-16T04:14:14;8.48;;;4.30;;
9485;SDS011;4781;48.776;9.200;2023-04-16T04:16:43;8.88;;;4.78;;
9485;SDS011;4781;48.776;9.200;2023-04-16T04:19:11;9.83;;;4.20;;
9485;SDS011;4781;48.776;9.200;2023-04-16T04:21:40;10.45;;;4.95;;
9485;SDS011;4781;48.776;9.200;2023-04-16T04:24:08;8.28;;;4.42;;
9485;SDS011;4781;48.776;9.200;2023-04-16T04:26:37;7.12;;;4.15;;
9485;SDS011;4781;48.776;9.200;2023-04-16T04:29:05;9.28;;;4.85;;
9485;SDS011;4781;48.776;9.200;2023-04-16T04:31:34;9.23;;;4.40;;
9485;SDS011;4781;48.776;9.200;2023-04-16T04:34:02;10.72;;;4.37;;
9485;SDS011;4781;48.776;9.200;2023-04-16T04:36:30;6.72;;;3.55;;
9485;SDS011;4781;48.776;9.200;2023-04-16T04:38:59;7.75;;;4.10;;
9485;SDS011;4781;48.776;9.200;2023-04-16T04:41:27;8.13;;;4.22;;
9485;SDS011;4781;48.776;9.200;2023-04-16T04:43:56;9.30;;;4.72;;
9485;SDS011;4781;48.776;9.200;2023-04-16T04:46:24;7.92;;;4.12;;
9485;SDS011;4781;48.776;9.200;2023-04-16T04:48:52;8.65;;;4.03;;
9485;SDS011;4781;48.776;9.200;2023-04-16T04:51:21;8.45;;;4.40;;
9485;SDS011;4781;48.776;9.200;2023-04-16T04:53:49;8.53;;;4.50;;
9485;SDS011;4781;48.776;9.200;2023-04-16T04:56:17;8.25;;;4.35;;
9485;SDS011;4781;48.776;9.200;2023-04-16T04:58:48;8.58;;;4.17;;
9485;SDS011;4781;48.776;9.200;2023-04-16T05:01:17;8.20;;;4.00;;
9485;SDS011;4781;48.776;9.200;2023-04-16T05:03:45;10.53;;;4.92;;
9485;SDS011;4781;48.776;9.200;2023-04-16T05:06:14;8.10;;;3.83;;
9485;SDS011;4781;48.776;9.200;2023-04-16T05:08:42;8.23;;;4.45;;
9485;SDS011;4781;48.776;9.200;2023-04-16T05:11:11;9.60;;;4.97;;
9485;SDS011;4781;48.776;9.200;2023-04-16T05:13:39;7.80;;;3.92;;
9485;SDS011;4781;48.776;9.200;2023-04-16T05:16:07;8.30;;;4.12;;
9485;SDS011;4781;48.776;9.200;2023-04-16T05:18:36;9.70;;;4.20;;
9485;SDS011;4781;48.776;9.200;2023-04-16T05:21:04;8.30;;;4.00;;
9485;SDS011;4781;48.776;9.200;2023-04-16T05:23:32;8.90;;;3.87;;
9485;SDS011;4781;48.776;9.200;2023-04-16T05:26:01;7.80;;;4.37;;
9485;SDS011;4781;48.776;9.200;2023-04-16T05:28:29;7.55;;;3.77;;
9485;SDS011;4781;48.776;9.200;2023-04-16T05:30:58;8.20;;;3.92;;
9485;SDS011;4781;48.776;9.200;2023-04-16T05:33:27;11.38;;;5.03;;
9485;SDS011;4781;48.776;9.200;2023-04-16T05:35:55;11.08;;;5.42;;
9485;SDS011;4781;48.776;9.200;2023-04-16T05:38:23;12.65;;;5.22;;
9485;SDS011;4781;48.776;9.200;2023-04-16T05:40:52;10.68;;;6.15;;
9485;SDS011;4781;48.776;9.200;2023-04-16T05:43:21;17.23;;;5.90;;
9485;SDS011;4781;48.776;9.200;2023-04-16T05:45:49;11.00;;;5.60;;
9485;SDS011;4781;48.776;9.200;2023-04-16T05:48:17;11.08;;;5.75;;
9485;SDS011;4781;48.776;9.200;2023-04-16T05:50:46;10.88;;;5.53;;
9485;SDS011;4781;48.776;9.200;2023-04-16T05:53:15;14.03;;;6.72;;
9485;SDS011;4781;48.776;9.200;2023-04-16T05:55:43;13.40;;;6.45;;
9485;SDS011;4781;48.776;9.200;2023-04-16T05:58:12;14.23;;;6.22;;
9485;SDS011;4781;48.776;9.200;2023-04-16T06:00:40;12.55;;;6.17;;
9485;SDS011;4781;48.776;9.200;2023-04-16T06:03:09;15.98;;;6.22;;
9485;SDS011;4781;48.776;9.200;2023-04-16T06:05:37;15.08;;;7.05;;
9485;SDS011;4781;48.776;9.200;2023-04-16T06:08:06;13.48;;;7.17;;
9485;SDS011;4781;48.776;9.200;2023-04-16T06:10:34;14.78;;;7.17;;
9485;SDS011;4781;48.776;9.200;2023-04-16T06:13:03;14.18;;;7.10;;
9485;SDS011;4781;48.776;9.200;2023-04-16T06:15:31;18.00;;;8.28;;
9485;SDS011;4781;48.776;9.200;2023-04-16T06:17:59;14.78;;;7.40;;
9485;SDS011;4781;48.776;9.200;2023-04-16T06:20:28;20.35;;;8.83;;
9485;SDS011;4781;48.776;9.200;2023-04-16T06:22:56;14.78;;;7.50;;
9485;SDS011;4781;48.776;9.200;2023-04-16T06:25:25;16.95;;;7.87;;
9485;SDS011;4781;48.776;9.200;2023-04-16T06:27:53;15.10;;;6.92;;
9485;SDS011;4781;48.776;9.200;2023-04-16T06:30:21;17.47;;;8.70;;
9485;SDS011;4781;48.776;9.200;2023-04-16T06:32:50;16.87;;;8.55;;
9485;SDS011;4781;48.776;9.200;2023-04-16T06:35:19;13.15;;;7.00;;
9485;SDS011;4781;48.776;9.200;2023-04-16T06:37:47;16.75;;;7.28;;
9485;SDS011;4781;48.776;9.200;2023-04-16T06:40:16;16.60;;;8.10;;
9485;SDS011;4781;48.776;9.200;2023-04-16T06:42:44;16.42;;;8.08;;
9485;SDS011;4781;48.776;9.200;2023-04-16T06:45:12;14.23;;;7.15;;
9485;SDS011;4781;48.776;9.200;2023-04-16T06:47:41;18.42;;;8.68;;
9485;SDS011;4781;48.776;9.200;2023-04-16T06:50:09;16.57;;;8.18;;
9485;SDS011;4781;48.776;9.200;2023-04-16T06:52:38;17.15;;;7.70;;
9485;SDS011;4781;48.776;9.200;2023-04-16T06:55:06;14.50;;;7.65;;
9485;SDS011;4781;48.776;9.200;2023-04-16T06:57:36;18.95;;;8.83;;
9485;SDS011;4781;48.776;9.200;2023-04-16T07:00:05;17.07;;;8.18;;
9485;SDS011;4781;48.776;9.200;2023-04-16T07:02:36;17.65;;;8.08;;
9485;SDS011;4781;48.776;9.200;2023-04-16T07:05:05;17.60;;;8.05;;
9485;SDS011;4781;48.776;9.200;2023-04-16T07:07:33;17.92;;;8.53;;
9485;SDS011;4781;48.776;9.200;2023-04-16T07:10:02;18.98;;;7.70;;
9485;SDS011;4781;48.776;9.200;2023-04-16T07:12:31;17.92;;;7.85;;
9485;SDS011;4781;48.776;9.200;2023-04-16T07:15:00;16.02;;;7.85;;
9485;SDS011;4781;48.776;9.200;2023-04-16T07:17:28;15.98;;;7.83;;
9485;SDS011;4781;48.776;9.200;2023-04-16T07:19:56;17.30;;;8.63;;
9485;SDS011;4781;48.776;9.200;2023-04-16T07:22:25;17.52;;;8.38;;
9485;SDS011;4781;48.776;9.200;2023-04-16T07:24:53;17.32;;;8.35;;
9485;SDS011;4781;48.776;9.200;2023-04-16T07:27:21;16.60;;;8.05;;
9485;SDS011;4781;48.776;9.200;2023-04-16T07:29:50;17.50;;;8.75;;
9485;SDS011;4781;48.776;9.200;2023-04-16T07:32:20;18.00;;;8.53;;
9485;SDS011;4781;48.776;9.200;2023-04-16T07:34:48;18.30;;;7.97;;
9485;SDS011;4781;48.776;9.200;2023-04-16T07:37:17;16.97;;;7.50;;
9485;SDS011;4781;48.776;9.200;2023-04-16T07:39:45;15.72;;;7.70;;
9485;SDS011;4781;48.776;9.200;2023-04-16T07:42:14;18.87;;;8.00;;
9485;SDS011;4781;48.776;9.200;2023-04-16T07:44:42;14.05;;;6.92;;
9485;SDS011;4781;48.776;9.200;2023-04-16T07:47:11;18.00;;;8.50;;
9485;SDS011;4781;48.776;9.200;2023-04-16T07:49:39;18.17;;;8.33;;
9485;SDS011;4781;48.776;9.200;2023-04-16T07:52:08;17.80;;;7.33;;
9485;SDS011;4781;48.776;9.200;2023-04-16T07:54:36;16.75;;;7.65;;
9485;SDS011;4781;48.776;9.200;2023-04-16T07:57:04;17.70;;;7.35;;
9485;SDS011;4781;48.776;9.200;2023-04-16T07:59:33;15.30;;;7.50;;
9485;SDS011;4781;48.776;9.200;2023-04-16T08:02:01;15.00;;;8.03;;
9485;SDS011;4781;48.776;9.200;2023-04-16T08:04:30;15.20;;;7.92;;
9485;SDS011;4781;48.776;9.200;2023-04-16T08:06:59;14.35;;;6.37;;
9485;SDS011;4781;48.776;9.200;2023-04-16T08:09:27;13.38;;;6.95;;
9485;SDS011;4781;48.776;9.200;2023-04-16T08:11:56;13.43;;;7.47;;
9485;SDS011;4781;48.776;9.200;2023-04-16T08:14:26;13.15;;;6.80;;
9485;SDS011;4781;48.776;9.200;2023-04-16T08:16:54;15.68;;;7.10;;
9485;SDS011;4781;48.776;9.200;2023-04-16T08:19:22;15.15;;;7.83;;
9485;SDS011;4781;48.776;9.200;2023-04-16T08:21:51;15.30;;;7.10;;
9485;SDS011;4781;48.776;9.200;2023-04-16T08:24:19;18.65;;;7.45;;
9485;SDS011;4781;48.776;9.200;2023-04-16T08:26:48;16.42;;;7.40;;
9485;SDS011;4781;48.776;9.200;2023-04-16T08:29:16;17.35;;;7.20;;
9485;SDS011;4781;48.776;9.200;2023-04-16T08:31:45;16.15;;;6.75;;
9485;SDS011;4781;48.776;9.200;2023-04-16T08:34:14;13.90;;;7.22;;
9485;SDS011;4781;48.776;9.200;2023-04-16T08:36:42;17.05;;;7.10;;
9485;SDS011;4781;48.776;9.200;2023-04-16T08:39:11;14.75;;;6.90;;
9485;SDS011;4781;48.776;9.200;2023-04-16T08:41:45;15.18;;;7.45;;
9485;SDS011;4781;48.776;9.200;2023-04-16T08:44:13;14.20;;;6.60;;
9485;SDS011;4781;48.776;9.200;2023-04-16T08:46:53;14.83;;;7.03;;
9485;SDS011;4781;48.776;9.200;2023-04-16T08:49:24;11.88;;;6.15;;
9485;SDS011;4781;48.776;9.200;2023-04-16T08:51:53;11.70;;;6.30;;
9485;SDS011;4781;48.776;9.200;2023-04-16T08:54:30;15.13;;;8.10;;
9485;SDS011;4781;48.776;9.200;2023-04-16T08:57:18;17.02;;;6.78;;
9485;SDS011;4781;48.776;9.200;2023-04-16T08:59:46;11.22;;;6.28;;
9485;SDS011;4781;48.776;9.200;2023-04-16T09:02:16;16.12;;;6.55;;
9485;SDS011;4781;48.776;9.200;2023-04-16T09:04:45;13.80;;;6.78;;
9485;SDS011;4781;48.776;9.200;2023-04-16T09:07:14;13.90;;;7.12;;
9485;SDS011;4781;48.776;9.200;2023-04-16T09:09:45;14.35;;;7.15;;
9485;SDS011;4781;48.776;9.200;2023-04-16T09:12:17;12.60;;;6.62;;
9485;SDS011;4781;48.776;9.200;2023-04-16T09:14:49;16.87;;;7.03;;
9485;SDS011;4781;48.776;9.200;2023-04-16T09:17:18;13.05;;;6.28;;
9485;SDS011;4781;48.776;9.200;2023-04-16T09:19:46;16.70;;;7.00;;
9485;SDS011;4781;48.776;9.200;2023-04-16T09:22:15;13.93;;;7.22;;
9485;SDS011;4781;48.776;9.200;2023-04-16T09:24:43;15.65;;;7.22;;
9485;SDS011;4781;48.776;9.200;2023-04-16T09:27:12;18.17;;;6.80;;
9485;SDS011;4781;48.776;9.200;2023-04-16T09:29:41;13.80;;;6.30;;
9485;SDS011;4781;48.776;9.200;2023-04-16T09:32:10;19.10;;;6.80;;
9485;SDS011;4781;48.776;9.200;2023-04-16T09:34:57;15.50;;;6.15;;
9485;SDS011;4781;48.776;9.200;2023-04-16T09:37:27;16.00;;;6.65;;
9485;SDS011;4781;48.776;9.200;2023-04-16T09:39:58;13.53;;;6.42;;
9485;SDS011;4781;48.776;9.200;2023-04-16T09:42:34;14.85;;;6.85;;
9485;SDS011;4781;48.776;9.200;2023-04-16T09:45:04;12.30;;;6.50;;
9485;SDS011;4781;48.776;9.200;2023-04-16T09:47:44;12.93;;;6.67;;
9485;SDS011;4781;48.776;9.200;2023-04-16T09:50:14;15.72;;;7.17;;
9485;SDS011;4781;48.776;9.200;2023-04-16T09:52:46;17.87;;;7.00;;
9485;SDS011;4781;48.776;9.200;2023-04-16T09:55:21;14.60;;;6.72;;
9485;SDS011;4781;48.776;9.200;2023-04-16T09:58:03;15.60;;;7.00;;
9485;SDS011;4781;48.776;9.200;2023-04-16T10:00:28;13.48;;;6.35;;
9485;SDS011;4781;48.776;9.200;2023-04-16T10:03:03;14.43;;;6.90;;
9485;SDS011;4781;48.776;9.200;2023-04-16T10:05:32;13.43;;;6.80;;
9485;SDS011;4781;48.776;9.200;2023-04-16T10:08:01;12.47;;;5.90;;
9485;SDS011;4781;48.776;9.200;2023-04-16T10:10:31;15.05;;;6.60;;
9485;SDS011;4781;48.776;9.200;2023-04-16T10:12:59;16.23;;;7.00;;
9485;SDS011;4781;48.776;9.200;2023-04-16T10:15:28;13.55;;;6.95;;
9485;SDS011;4781;48.776;9.200;2023-04-16T10:17:56;15.70;;;6.12;;
9485;SDS011;4781;48.776;9.200;2023-04-16T10:20:25;16.00;;;6.50;;
9485;SDS011;4781;48.776;9.200;2023-04-16T10:22:54;14.50;;;5.83;;
9485;SDS011;4781;48.776;9.200;2023-04-16T10:25:23;12.05;;;6.15;;
9485;SDS011;4781;48.776;9.200;2023-04-16T10:27:52;14.70;;;7.15;;
9485;SDS011;4781;48.776;9.200;2023-04-16T10:30:22;14.15;;;6.37;;
9485;SDS011;4781;48.776;9.200;2023-04-16T10:32:51;14.93;;;6.87;;
9485;SDS011;4781;48.776;9.200;2023-04-16T10:35:21;14.85;;;7.40;;
9485;SDS011;4781;48.776;9.200;2023-04-16T10:37:55;11.90;;;5.85;;
9485;SDS011;4781;48.776;9.200;2023-04-16T10:40:25;16.45;;;6.60;;
9485;SDS011;4781;48.776;9.200;2023-04-16T10:42:59;16.30;;;7.78;;
9485;SDS011;4781;48.776;9.200;2023-04-16T10:45:28;14.45;;;7.25;;
9485;SDS011;4781;48.776;9.200;2023-04-16T10:48:05;15.00;;;7.33;;
9485;SDS011;4781;48.776;9.200;2023-04-16T10:50:35;15.25;;;7.05;;
9485;SDS011;4781;48.776;9.200;2023-04-16T10:53:20;12.80;;;6.40;;
9485;SDS011;4781;48.776;9.200;2023-04-16T10:58:36;14.80;;;6.47;;
9485;SDS011;4781;48.776;9.200;2023-04-16T11:01:11;13.32;;;5.83;;
9485;SDS011;4781;48.776;9.200;2023-04-16T11:03:42;14.63;;;5.75;;
9485;SDS011;4781;48.776;9.200;2023-04-16T11:06:15;16.17;;;5.22;;
9485;SDS011;4781;48.776;9.200;2023-04-16T11:08:46;14.30;;;6.15;;
9485;SDS011;4781;48.776;9.200;2023-04-16T11:11:17;11.08;;;5.62;;
9485;SDS011;4781;48.776;9.200;2023-04-16T11:13:46;12.63;;;6.05;;
9485;SDS011;4781;48.776;9.200;2023-04-16T11:16:15;13.22;;;5.90;;
9485;SDS011;4781;48.776;9.200;2023-04-16T11:18:44;10.63;;;5.05;;
9485;SDS011;4781;48.776;9.200;2023-04-16T11:21:12;11.18;;;5.10;;
9485;SDS011;4781;48.776;9.200;2023-04-16T11:23:52;12.68;;;5.25;;
9485;SDS011;4781;48.776;9.200;2023-04-16T11:26:22;10.32;;;4.60;;
9485;SDS011;4781;48.776;9.200;2023-04-16T11:28:54;8.80;;;4.53;;
9485;SDS011;4781;48.776;9.200;2023-04-16T11:31:23;11.93;;;4.97;;
9485;SDS011;4781;48.776;9.200;2023-04-16T11:33:53;8.93;;;4.58;;
9485;SDS011;4781;48.776;9.200;2023-04-16T11:36:22;9.03;;;4.00;;
9485;SDS011;4781;48.776;9.200;2023-04-16T11:38:51;8.28;;;4.45;;
9485;SDS011;4781;48.776;9.200;2023-04-16T11:41:25;9.73;;;4.42;;
9485;SDS011;4781;48.776;9.200;2023-04-16T11:43:53;8.88;;;3.92;;
9485;SDS011;4781;48.776;9.200;2023-04-16T11:46:22;8.78;;;4.08;;
9485;SDS011;4781;48.776;9.200;2023-04-16T11:48:53;7.22;;;3.42;;
9485;SDS011;4781;48.776;9.200;2023-04-16T11:51:22;8.60;;;4.08;;
9485;SDS011;4781;48.776;9.200;2023-04-16T11:53:51;6.90;;;3.30;;
9485;SDS011;4781;48.776;9.200;2023-04-16T11:56:29;7.35;;;3.62;;
9485;SDS011;4781;48.776;9.200;2023-04-16T12:01:41;7.03;;;3.70;;
9485;SDS011;4781;48.776;9.200;2023-04-16T12:04:13;7.22;;;3.35;;
9485;SDS011;4781;48.776;9.200;2023-04-16T12:07:03;6.35;;;3.20;;
9485;SDS011;4781;48.776;9.200;2023-04-16T12:09:39;6.97;;;3.33;;
9485;SDS011;4781;48.776;9.200;2023-04-16T12:12:32;7.72;;;3.10;;
9485;SDS011;4781;48.776;9.200;2023-04-16T12:15:01;5.70;;;2.75;;
9485;SDS011;4781;48.776;9.200;2023-04-16T12:17:30;7.37;;;3.10;;
9485;SDS011;4781;48.776;9.200;2023-04-16T12:20:00;5.72;;;2.60;;
9485;SDS011;4781;48.776;9.200;2023-04-16T12:22:32;5.03;;;2.27;;
9485;SDS011;4781;48.776;9.200;2023-04-16T12:25:04;5.08;;;2.30;;
9485;SDS011;4781;48.776;9.200;2023-04-16T12:27:42;6.05;;;2.22;;
9485;SDS011;4781;48.776;9.200;2023-04-16T12:30:23;8.43;;;3.17;;
9485;SDS011;4781;48.776;9.200;2023-04-16T12:33:12;6.03;;;2.37;;
9485;SDS011;4781;48.776;9.200;2023-04-16T12:35:42;5.62;;;2.40;;
9485;SDS011;4781;48.776;9.200;2023-04-16T12:38:11;5.55;;;2.50;;
9485;SDS011;4781;48.776;9.200;2023-04-16T12:40:40;4.65;;;2.33;;
9485;SDS011;4781;48.776;9.200;2023-04-16T12:43:08;5.47;;;2.55;;
9485;SDS011;4781;48.776;9.200;2023-04-16T12:45:38;5.90;;;2.65;;
9485;SDS011;4781;48.776;9.200;2023-04-16T12:48:06;4.60;;;2.30;;
9485;SDS011;4781;48.776;9.200;2023-04-16T12:50:35;5.03;;;2.77;;
9485;SDS011;4781;48.776;9.200;2023-04-16T12:53:04;4.75;;;2.33;;
9485;SDS011;4781;48.776;9.200;2023-04-16T12:55:32;4.25;;;2.42;;
9485;SDS011;4781;48.776;9.200;2023-04-16T12:58:01;5.83;;;2.40;;
9485;SDS011;4781;48.776;9.200;2023-04-16T13:00:29;6.28;;;2.77;;
9485;SDS011;4781;48.776;9.200;2023-04-16T13:02:58;5.10;;;2.50;;
9485;SDS011;4781;48.776;9.200;2023-04-16T13:05:26;6.22;;;2.80;;
9485;SDS011;4781;48.776;9.200;2023-04-16T13:07:55;4.35;;;2.47;;
9485;SDS011;4781;48.776;9.200;2023-04-16T13:10:23;4.80;;;2.50;;
9485;SDS011;4781;48.776;9.200;2023-04-16T13:12:52;6.28;;;2.80;;
9485;SDS011;4781;48.776;9.200;2023-04-16T13:15:21;6.33;;;3.17;;
9485;SDS011;4781;48.776;9.200;2023-04-16T13:17:49;5.95;;;3.30;;
9485;SDS011;4781;48.776;9.200;2023-04-16T13:20:17;5.08;;;2.85;;
9485;SDS011;4781;48.776;9.200;2023-04-16T13:22:46;6.75;;;3.12;;
9485;SDS011;4781;48.776;9.200;2023-04-16T13:25:14;5.45;;;2.67;;
9485;SDS011;4781;48.776;9.200;2023-04-16T13:27:43;6.17;;;3.10;;
9485;SDS011;4781;48.776;9.200;2023-04-16T13:30:11;6.17;;;2.87;;
9485;SDS011;4781;48.776;9.200;2023-04-16T13:32:40;6.08;;;3.20;;
9485;SDS011;4781;48.776;9.200;2023-04-16T13:35:09;8.48;;;3.35;;
9485;SDS011;4781;48.776;9.200;2023-04-16T13:37:37;6.05;;;3.12;;
9485;SDS011;4781;48.776;9.200;2023-04-16T13:40:06;6.50;;;3.33;;
9485;SDS011;4781;48.776;9.200;2023-04-16T13:42:35;6.55;;;3.12;;
9485;SDS011;4781;48.776;9.200;2023-04-16T13:45:04;5.78;;;2.83;;
9485;SDS011;4781;48.776;9.200;2023-04-16T13:47:34;6.55;;;3.08;;
9485;SDS011;4781;48.776;9.200;2023-04-16T13:50:04;5.72;;;3.25;;
9485;SDS011;4781;48.776;9.200;2023-04-16T13:52:33;6.37;;;3.77;;
9485;SDS011;4781;48.776;9.200;2023-04-16T13:55:01;6.40;;;3.20;;
9485;SDS011;4781;48.776;9.200;2023-04-16T13:57:30;6.50;;;3.37;;
9485;SDS011;4781;48.776;9.200;2023-04-16T13:59:59;6.87;;;3.75;;
9485;SDS011;4781;48.776;9.200;2023-04-16T14:02:28;6.78;;;3.17;;
9485;SDS011;4781;48.776;9.200;2023-04-16T14:04:57;7.33;;;3.60;;
9485;SDS011;4781;48.776;9.200;2023-04-16T14:07:25;6.58;;;3.70;;
9485;SDS011;4781;48.776;9.200;2023-04-16T14:09:54;9.68;;;3.90;;
9485;SDS011;4781;48.776;9.200;2023-04-16T14:12:22;7.30;;;3.60;;
9485;SDS011;4781;48.776;9.200;2023-04-16T14:14:50;6.28;;;3.60;;
9485;SDS011;4781;48.776;9.200;2023-04-16T14:17:19;7.62;;;3.30;;
9485;SDS011;4781;48.776;9.200;2023-04-16T14:19:47;7.87;;;4.05;;
9485;SDS011;4781;48.776;9.200;2023-04-16T14:22:16;6.85;;;3.52;;
9485;SDS011;4781;48.776;9.200;2023-04-16T14:24:44;8.43;;;3.85;;
9485;SDS011;4781;48.776;9.200;2023-04-16T14:27:12;6.80;;;3.98;;
9485;SDS011;4781;48.776;9.200;2023-04-16T14:29:41;21.25;;;3.92;;
9485;SDS011;4781;48.776;9.200;2023-04-16T14:32:11;8.75;;;4.25;;
9485;SDS011;4781;48.776;9.200;2023-04-16T14:34:39;7.22;;;4.10;;
9485;SDS011;4781;48.776;9.200;2023-04-16T14:37:08;7.33;;;3.90;;
9485;SDS011;4781;48.776;9.200;2023-04-16T14:39:36;9.90;;;4.83;;
9485;SDS011;4781;48.776;9.200;2023-04-16T14:42:04;7.00;;;4.08;;
9485;SDS011;4781;48.776;9.200;2023-04-16T14:44:33;11.12;;;4.90;;
9485;SDS011;4781;48.776;9.200;2023-04-16T14:47:01;8.08;;;4.47;;
9485;SDS011;4781;48.776;9.200;2023-04-16T14:49:30;11.35;;;4.62;;
9485;SDS011;4781;48.776;9.200;2023-04-16T14:51:59;10.23;;;4.87;;
9485;SDS011;4781;48.776;9.200;2023-04-16T14:54:30;9.83;;;4.90;;
9485;SDS011;4781;48.776;9.200;2023-04-16T14:56:58;10.35;;;5.33;;
9485;SDS011;4781;48.776;9.200;2023-04-16T14:59:27;9.48;;;5.00;;
9485;SDS011;4781;48.776;9.200;2023-04-16T15:01:56;10.45;;;5.05;;
9485;SDS011;4781;48.776;9.200;2023-04-16T15:04:24;11.10;;;5.53;;
9485;SDS011;4781;48.776;9.200;2023-04-16T15:06:53;10.43;;;5.85;;
9485;SDS011;4781;48.776;9.200;2023-04-16T15:09:24;13.18;;;5.25;;
9485;SDS011;4781;48.776;9.200;2023-04-16T15:11:52;11.45;;;5.70;;
9485;SDS011;4781;48.776;9.200;2023-04-16T15:14:21;11.43;;;5.83;;
9485;SDS011;4781;48.776;9.200;2023-04-16T15:16:50;15.50;;;5.53;;
9485;SDS011;4781;48.776;9.200;2023-04-16T15:19:19;10.30;;;5.40;;
9485;SDS011;4781;48.776;9.200;2023-04-16T15:21:48;15.15;;;6.95;;
9485;SDS011;4781;48.776;9.200;2023-04-16T15:24:16;11.48;;;5.55;;
9485;SDS011;4781;48.776;9.200;2023-04-16T15:26:44;14.20;;;7.05;;
9485;SDS011;4781;48.776;9.200;2023-04-16T15:29:13;15.85;;;6.75;;